sensor_id;sensor_type;location;lat;lon;timestamp;temperature;humidity
516;DHT22;244;48.508;9.052;2023-08-06T00:00:55;16.90;28.20
516;DHT22;244;48.508;9.052;2023-08-06T00:03:22;16.90;28.20
516;DHT22;244;48.508;9.052;2023-08-06T00:05:49;16.90;28.20
516;DHT22;244;48.508;9.052;2023-08-06T00:08:16;16.90;28.80
516;DHT22;244;48.508;9.052;2023-08-06T00:10:44;16.80;28.10
516;DHT22;244;48.508;9.052;2023-08-06T00:13:11;16.80;28.70
516;DHT22;244;48.508;9.052;2023-08-06T00:15:38;16.80;28.10
516;DHT22;244;48.508;9.052;2023-08-06T00:18:05;16.70;28.00
516;DHT22;244;48.508;9.052;2023-08-06T00:20:31;16.70;28.60
516;DHT22;244;48.508;9.052;2023-08-06T00:22:58;16.60;28.00
516;DHT22;244;48.508;9.052;2023-08-06T00:25:25;16.60;28.00
516;DHT22;244;48.508;9.052;2023-08-06T00:27:53;16.50;28.10
516;DHT22;244;48.508;9.052;2023-08-06T00:30:22;16.50;28.10
516;DHT22;244;48.508;9.052;2023-08-06T00:32:48;16.50;27.90
516;DHT22;244;48.508;9.052;2023-08-06T00:35:15;16.40;27.80
516;DHT22;244;48.508;9.052;2023-08-06T00:37:42;16.40;27.90
516;DHT22;244;48.508;9.052;2023-08-06T00:40:09;16.40;28.60
516;DHT22;244;48.508;9.052;2023-08-06T00:42:36;16.30;28.10
516;DHT22;244;48.508;9.052;2023-08-06T00:45:05;16.30;28.30
516;DHT22;244;48.508;9.052;2023-08-06T00:47:32;16.30;28.40
516;DHT22;244;48.508;9.052;2023-08-06T00:49:59;16.30;29.10
516;DHT22;244;48.508;9.052;2023-08-06T00:52:26;16.30;28.60
516;DHT22;244;48.508;9.052;2023-08-06T00:54:53;16.20;28.60
516;DHT22;244;48.508;9.052;2023-08-06T00:57:22;16.20;28.50
516;DHT22;244;48.508;9.052;2023-08-06T00:59:51;16.20;28.30
516;DHT22;244;48.508;9.052;2023-08-06T01:02:20;16.20;28.30
516;DHT22;244;48.508;9.052;2023-08-06T01:04:46;16.20;28.80
516;DHT22;244;48.508;9.052;2023-08-06T01:07:21;16.10;28.20
516;DHT22;244;48.508;9.052;2023-08-06T01:10:00;16.10;28.10
516;DHT22;244;48.508;9.052;2023-08-06T01:12:50;16.10;28.20
516;DHT22;244;48.508;9.052;2023-08-06T01:15:24;16.00;28.10
516;DHT22;244;48.508;9.052;2023-08-06T01:17:52;16.00;28.00
516;DHT22;244;48.508;9.052;2023-08-06T01:20:20;16.00;28.00
516;DHT22;244;48.508;9.052;2023-08-06T01:22:48;16.00;28.40
516;DHT22;244;48.508;9.052;2023-08-06T01:25:15;15.90;27.70
516;DHT22;244;48.508;9.052;2023-08-06T01:27:46;15.90;27.70
516;DHT22;244;48.508;9.052;2023-08-06T01:30:17;15.80;27.80
516;DHT22;244;48.508;9.052;2023-08-06T01:32:49;15.80;28.00
516;DHT22;244;48.508;9.052;2023-08-06T01:35:19;15.70;28.00
516;DHT22;244;48.508;9.052;2023-08-06T01:37:48;15.70;28.10
516;DHT22;244;48.508;9.052;2023-08-06T01:40:15;15.70;28.10
516;DHT22;244;48.508;9.052;2023-08-06T01:42:42;15.70;28.60
516;DHT22;244;48.508;9.052;2023-08-06T01:45:09;15.70;27.90
516;DHT22;244;48.508;9.052;2023-08-06T01:47:36;15.60;27.90
516;DHT22;244;48.508;9.052;2023-08-06T01:50:04;15.60;28.00
516;DHT22;244;48.508;9.052;2023-08-06T01:52:31;15.60;28.00
516;DHT22;244;48.508;9.052;2023-08-06T01:54:59;15.50;28.00
516;DHT22;244;48.508;9.052;2023-08-06T01:57:26;15.50;28.50
516;DHT22;244;48.508;9.052;2023-08-06T01:59:53;15.50;27.80
516;DHT22;244;48.508;9.052;2023-08-06T02:02:20;15.50;27.80
516;DHT22;244;48.508;9.052;2023-08-06T02:04:46;15.50;28.40
516;DHT22;244;48.508;9.052;2023-08-06T02:07:13;15.40;27.70
516;DHT22;244;48.508;9.052;2023-08-06T02:09:40;15.40;27.90
516;DHT22;244;48.508;9.052;2023-08-06T02:12:08;15.40;27.80
516;DHT22;244;48.508;9.052;2023-08-06T02:14:35;15.40;27.70
516;DHT22;244;48.508;9.052;2023-08-06T02:17:02;15.30;27.60
516;DHT22;244;48.508;9.052;2023-08-06T02:19:29;15.30;28.10
516;DHT22;244;48.508;9.052;2023-08-06T02:21:56;15.30;27.60
516;DHT22;244;48.508;9.052;2023-08-06T02:24:23;15.30;27.50
516;DHT22;244;48.508;9.052;2023-08-06T02:26:50;15.20;27.50
516;DHT22;244;48.508;9.052;2023-08-06T02:29:22;15.20;28.20
516;DHT22;244;48.508;9.052;2023-08-06T02:31:49;15.20;27.70
516;DHT22;244;48.508;9.052;2023-08-06T02:34:16;15.10;28.30
516;DHT22;244;48.508;9.052;2023-08-06T02:36:43;15.10;27.80
516;DHT22;244;48.508;9.052;2023-08-06T02:39:09;15.20;28.40
516;DHT22;244;48.508;9.052;2023-08-06T02:41:36;15.30;28.40
516;DHT22;244;48.508;9.052;2023-08-06T02:44:03;15.30;28.50
516;DHT22;244;48.508;9.052;2023-08-06T02:46:32;15.30;27.80
516;DHT22;244;48.508;9.052;2023-08-06T02:48:59;15.40;27.80
516;DHT22;244;48.508;9.052;2023-08-06T02:51:25;15.50;27.90
516;DHT22;244;48.508;9.052;2023-08-06T02:53:52;15.50;27.80
516;DHT22;244;48.508;9.052;2023-08-06T02:56:19;15.60;27.60
516;DHT22;244;48.508;9.052;2023-08-06T02:58:46;15.60;27.50
516;DHT22;244;48.508;9.052;2023-08-06T03:01:14;15.60;27.60
516;DHT22;244;48.508;9.052;2023-08-06T03:03:42;15.60;27.50
516;DHT22;244;48.508;9.052;2023-08-06T03:06:09;15.60;27.30
516;DHT22;244;48.508;9.052;2023-08-06T03:08:36;15.60;27.30
516;DHT22;244;48.508;9.052;2023-08-06T03:11:03;15.60;27.90
516;DHT22;244;48.508;9.052;2023-08-06T03:13:30;15.70;27.40
516;DHT22;244;48.508;9.052;2023-08-06T03:15:58;15.70;27.40
516;DHT22;244;48.508;9.052;2023-08-06T03:18:25;15.70;27.40
516;DHT22;244;48.508;9.052;2023-08-06T03:20:54;15.80;27.40
516;DHT22;244;48.508;9.052;2023-08-06T03:23:21;15.80;27.40
516;DHT22;244;48.508;9.052;2023-08-06T03:25:48;15.80;27.40
516;DHT22;244;48.508;9.052;2023-08-06T03:28:15;15.90;28.10
516;DHT22;244;48.508;9.052;2023-08-06T03:30:42;15.90;28.10
516;DHT22;244;48.508;9.052;2023-08-06T03:33:09;15.90;28.10
516;DHT22;244;48.508;9.052;2023-08-06T03:35:35;15.90;27.50
516;DHT22;244;48.508;9.052;2023-08-06T03:38:04;15.90;27.50
516;DHT22;244;48.508;9.052;2023-08-06T03:40:31;15.90;27.50
516;DHT22;244;48.508;9.052;2023-08-06T03:42:57;15.90;27.40
516;DHT22;244;48.508;9.052;2023-08-06T03:45:24;15.90;27.20
516;DHT22;244;48.508;9.052;2023-08-06T03:47:51;15.90;27.10
516;DHT22;244;48.508;9.052;2023-08-06T03:50:18;15.90;26.90
516;DHT22;244;48.508;9.052;2023-08-06T03:52:45;15.90;26.80
516;DHT22;244;48.508;9.052;2023-08-06T03:55:13;16.00;26.80
516;DHT22;244;48.508;9.052;2023-08-06T03:57:40;16.00;26.80
516;DHT22;244;48.508;9.052;2023-08-06T04:00:08;16.00;26.70
516;DHT22;244;48.508;9.052;2023-08-06T04:02:35;15.90;26.70
516;DHT22;244;48.508;9.052;2023-08-06T04:05:01;15.80;26.90
516;DHT22;244;48.508;9.052;2023-08-06T04:07:28;15.80;27.20
516;DHT22;244;48.508;9.052;2023-08-06T04:09:57;15.70;27.40
516;DHT22;244;48.508;9.052;2023-08-06T04:12:26;15.70;27.40
516;DHT22;244;48.508;9.052;2023-08-06T04:14:53;15.60;27.30
516;DHT22;244;48.508;9.052;2023-08-06T04:17:20;15.60;27.30
516;DHT22;244;48.508;9.052;2023-08-06T04:19:49;15.50;27.30
516;DHT22;244;48.508;9.052;2023-08-06T04:22:17;15.40;27.60
516;DHT22;244;48.508;9.052;2023-08-06T04:24:44;15.30;27.70
516;DHT22;244;48.508;9.052;2023-08-06T04:27:11;15.30;27.80
516;DHT22;244;48.508;9.052;2023-08-06T04:29:40;15.20;28.00
516;DHT22;244;48.508;9.052;2023-08-06T04:32:08;15.20;28.20
516;DHT22;244;48.508;9.052;2023-08-06T04:34:36;15.20;28.20
516;DHT22;244;48.508;9.052;2023-08-06T04:37:04;15.20;28.30
516;DHT22;244;48.508;9.052;2023-08-06T04:39:31;15.30;28.30
516;DHT22;244;48.508;9.052;2023-08-06T04:41:58;15.30;28.30
516;DHT22;244;48.508;9.052;2023-08-06T04:44:25;15.40;28.80
516;DHT22;244;48.508;9.052;2023-08-06T04:46:53;15.50;28.20
516;DHT22;244;48.508;9.052;2023-08-06T04:49:20;15.50;28.00
516;DHT22;244;48.508;9.052;2023-08-06T04:51:47;15.60;27.90
516;DHT22;244;48.508;9.052;2023-08-06T04:54:14;15.60;27.80
516;DHT22;244;48.508;9.052;2023-08-06T04:56:41;15.70;27.80
516;DHT22;244;48.508;9.052;2023-08-06T04:59:08;15.70;28.00
516;DHT22;244;48.508;9.052;2023-08-06T05:01:35;15.70;27.70
516;DHT22;244;48.508;9.052;2023-08-06T05:04:03;15.70;27.60
516;DHT22;244;48.508;9.052;2023-08-06T05:06:30;15.70;27.60
516;DHT22;244;48.508;9.052;2023-08-06T05:08:57;15.70;27.80
516;DHT22;244;48.508;9.052;2023-08-06T05:11:24;15.80;27.80
516;DHT22;244;48.508;9.052;2023-08-06T05:13:51;15.80;27.80
516;DHT22;244;48.508;9.052;2023-08-06T05:16:18;15.80;27.80
516;DHT22;244;48.508;9.052;2023-08-06T05:18:45;15.80;27.70
516;DHT22;244;48.508;9.052;2023-08-06T05:21:13;15.80;27.80
516;DHT22;244;48.508;9.052;2023-08-06T05:23:41;16.00;27.80
516;DHT22;244;48.508;9.052;2023-08-06T05:26:08;16.00;27.60
516;DHT22;244;48.508;9.052;2023-08-06T05:28:35;16.10;27.70
516;DHT22;244;48.508;9.052;2023-08-06T05:31:05;16.10;27.60
516;DHT22;244;48.508;9.052;2023-08-06T05:33:32;16.20;28.30
516;DHT22;244;48.508;9.052;2023-08-06T05:35:59;16.40;27.80
516;DHT22;244;48.508;9.052;2023-08-06T05:38:27;16.50;27.60
516;DHT22;244;48.508;9.052;2023-08-06T05:40:54;16.60;27.30
516;DHT22;244;48.508;9.052;2023-08-06T05:43:21;16.80;27.20
516;DHT22;244;48.508;9.052;2023-08-06T05:45:49;16.80;26.90
516;DHT22;244;48.508;9.052;2023-08-06T05:48:15;16.90;26.70
516;DHT22;244;48.508;9.052;2023-08-06T05:50:42;17.00;26.60
516;DHT22;244;48.508;9.052;2023-08-06T05:53:09;17.00;26.40
516;DHT22;244;48.508;9.052;2023-08-06T05:55:38;17.10;26.30
516;DHT22;244;48.508;9.052;2023-08-06T05:58:05;17.10;26.10
516;DHT22;244;48.508;9.052;2023-08-06T06:00:32;17.00;26.40
516;DHT22;244;48.508;9.052;2023-08-06T06:03:00;17.00;25.70
516;DHT22;244;48.508;9.052;2023-08-06T06:05:28;17.00;25.80
516;DHT22;244;48.508;9.052;2023-08-06T06:07:55;17.00;25.70
516;DHT22;244;48.508;9.052;2023-08-06T06:10:21;17.00;25.60
516;DHT22;244;48.508;9.052;2023-08-06T06:12:50;17.00;25.50
516;DHT22;244;48.508;9.052;2023-08-06T06:15:17;17.10;26.00
516;DHT22;244;48.508;9.052;2023-08-06T06:17:43;17.20;25.10
516;DHT22;244;48.508;9.052;2023-08-06T06:20:10;17.30;25.00
516;DHT22;244;48.508;9.052;2023-08-06T06:22:37;17.20;25.00
516;DHT22;244;48.508;9.052;2023-08-06T06:25:05;17.00;25.00
516;DHT22;244;48.508;9.052;2023-08-06T06:27:32;16.90;25.20
516;DHT22;244;48.508;9.052;2023-08-06T06:30:00;16.70;25.30
516;DHT22;244;48.508;9.052;2023-08-06T06:32:27;16.60;25.40
516;DHT22;244;48.508;9.052;2023-08-06T06:34:54;16.50;25.50
516;DHT22;244;48.508;9.052;2023-08-06T06:37:21;16.50;25.70
516;DHT22;244;48.508;9.052;2023-08-06T06:39:48;16.40;25.70
516;DHT22;244;48.508;9.052;2023-08-06T06:42:15;16.50;25.80
516;DHT22;244;48.508;9.052;2023-08-06T06:44:42;16.50;26.60
516;DHT22;244;48.508;9.052;2023-08-06T06:47:10;16.50;26.00
516;DHT22;244;48.508;9.052;2023-08-06T06:49:37;16.30;25.80
516;DHT22;244;48.508;9.052;2023-08-06T06:52:05;16.20;25.90
516;DHT22;244;48.508;9.052;2023-08-06T06:54:32;16.20;26.10
516;DHT22;244;48.508;9.052;2023-08-06T06:56:58;16.10;26.20
516;DHT22;244;48.508;9.052;2023-08-06T06:59:25;16.20;26.20
516;DHT22;244;48.508;9.052;2023-08-06T07:01:52;16.20;26.20
516;DHT22;244;48.508;9.052;2023-08-06T07:04:20;16.30;26.20
516;DHT22;244;48.508;9.052;2023-08-06T07:06:47;16.40;26.10
516;DHT22;244;48.508;9.052;2023-08-06T07:09:14;16.40;26.00
516;DHT22;244;48.508;9.052;2023-08-06T07:11:41;16.50;26.10
516;DHT22;244;48.508;9.052;2023-08-06T07:14:09;16.50;26.10
516;DHT22;244;48.508;9.052;2023-08-06T07:16:36;16.40;25.90
516;DHT22;244;48.508;9.052;2023-08-06T07:19:03;16.30;25.80
516;DHT22;244;48.508;9.052;2023-08-06T07:21:32;16.30;26.60
516;DHT22;244;48.508;9.052;2023-08-06T07:23:59;16.20;25.90
516;DHT22;244;48.508;9.052;2023-08-06T07:26:26;16.10;26.70
516;DHT22;244;48.508;9.052;2023-08-06T07:28:52;16.10;26.20
516;DHT22;244;48.508;9.052;2023-08-06T07:31:19;16.10;26.30
516;DHT22;244;48.508;9.052;2023-08-06T07:33:46;16.10;27.00
516;DHT22;244;48.508;9.052;2023-08-06T07:36:14;16.10;26.60
516;DHT22;244;48.508;9.052;2023-08-06T07:38:42;16.10;26.60
516;DHT22;244;48.508;9.052;2023-08-06T07:41:09;16.10;26.80
516;DHT22;244;48.508;9.052;2023-08-06T07:43:36;16.10;27.00
516;DHT22;244;48.508;9.052;2023-08-06T07:46:03;16.20;27.10
516;DHT22;244;48.508;9.052;2023-08-06T07:48:31;16.20;27.60
516;DHT22;244;48.508;9.052;2023-08-06T07:50:58;16.20;27.30
516;DHT22;244;48.508;9.052;2023-08-06T07:53:26;16.20;27.70
516;DHT22;244;48.508;9.052;2023-08-06T07:55:56;16.20;27.70
516;DHT22;244;48.508;9.052;2023-08-06T07:58:24;16.20;27.70
516;DHT22;244;48.508;9.052;2023-08-06T08:00:51;16.30;27.80
516;DHT22;244;48.508;9.052;2023-08-06T08:03:18;16.30;27.80
516;DHT22;244;48.508;9.052;2023-08-06T08:05:45;16.40;28.40
516;DHT22;244;48.508;9.052;2023-08-06T08:08:12;16.50;27.90
516;DHT22;244;48.508;9.052;2023-08-06T08:10:39;16.60;27.80
516;DHT22;244;48.508;9.052;2023-08-06T08:13:07;16.60;27.30
516;DHT22;244;48.508;9.052;2023-08-06T08:15:34;16.50;28.10
516;DHT22;244;48.508;9.052;2023-08-06T08:18:01;16.50;27.50
516;DHT22;244;48.508;9.052;2023-08-06T08:20:28;16.40;28.30
516;DHT22;244;48.508;9.052;2023-08-06T08:22:58;16.30;27.80
516;DHT22;244;48.508;9.052;2023-08-06T08:25:25;16.20;27.70
516;DHT22;244;48.508;9.052;2023-08-06T08:27:53;16.10;27.70
516;DHT22;244;48.508;9.052;2023-08-06T08:30:21;16.10;28.10
516;DHT22;244;48.508;9.052;2023-08-06T08:32:50;16.10;28.90
516;DHT22;244;48.508;9.052;2023-08-06T08:35:17;16.10;29.10
516;DHT22;244;48.508;9.052;2023-08-06T08:37:44;16.30;28.50
516;DHT22;244;48.508;9.052;2023-08-06T08:40:11;16.60;28.60
516;DHT22;244;48.508;9.052;2023-08-06T08:42:38;16.80;28.10
516;DHT22;244;48.508;9.052;2023-08-06T08:45:07;17.10;28.30
516;DHT22;244;48.508;9.052;2023-08-06T08:47:40;17.30;27.90
516;DHT22;244;48.508;9.052;2023-08-06T08:50:08;17.40;27.50
516;DHT22;244;48.508;9.052;2023-08-06T08:52:38;17.40;27.20
516;DHT22;244;48.508;9.052;2023-08-06T08:55:07;17.30;27.10
516;DHT22;244;48.508;9.052;2023-08-06T08:57:36;17.20;27.10
516;DHT22;244;48.508;9.052;2023-08-06T09:00:03;17.20;27.30
516;DHT22;244;48.508;9.052;2023-08-06T09:02:33;17.30;27.20
516;DHT22;244;48.508;9.052;2023-08-06T09:05:03;17.30;27.20
516;DHT22;244;48.508;9.052;2023-08-06T09:07:34;17.40;27.20
516;DHT22;244;48.508;9.052;2023-08-06T09:10:02;17.40;27.20
516;DHT22;244;48.508;9.052;2023-08-06T09:12:30;17.40;27.00
516;DHT22;244;48.508;9.052;2023-08-06T09:14:57;17.50;26.70
516;DHT22;244;48.508;9.052;2023-08-06T09:17:25;17.80;26.50
516;DHT22;244;48.508;9.052;2023-08-06T09:19:53;18.00;26.10
516;DHT22;244;48.508;9.052;2023-08-06T09:22:21;18.10;25.70
516;DHT22;244;48.508;9.052;2023-08-06T09:24:48;18.40;25.60
516;DHT22;244;48.508;9.052;2023-08-06T09:27:16;18.70;25.10
516;DHT22;244;48.508;9.052;2023-08-06T09:29:44;18.90;25.50
516;DHT22;244;48.508;9.052;2023-08-06T09:32:12;19.10;23.70
516;DHT22;244;48.508;9.052;2023-08-06T09:34:40;19.30;23.70
516;DHT22;244;48.508;9.052;2023-08-06T09:37:09;19.30;23.40
516;DHT22;244;48.508;9.052;2023-08-06T09:39:39;19.20;23.50
516;DHT22;244;48.508;9.052;2023-08-06T09:42:07;18.90;23.80
516;DHT22;244;48.508;9.052;2023-08-06T09:44:34;18.40;23.90
516;DHT22;244;48.508;9.052;2023-08-06T09:47:02;17.90;24.30
516;DHT22;244;48.508;9.052;2023-08-06T09:49:41;17.70;24.90
516;DHT22;244;48.508;9.052;2023-08-06T09:52:11;17.50;25.40
516;DHT22;244;48.508;9.052;2023-08-06T09:54:40;17.30;25.20
516;DHT22;244;48.508;9.052;2023-08-06T09:57:08;17.20;26.00
516;DHT22;244;48.508;9.052;2023-08-06T09:59:35;17.10;26.20
516;DHT22;244;48.508;9.052;2023-08-06T10:02:13;16.80;26.40
516;DHT22;244;48.508;9.052;2023-08-06T10:04:40;16.60;26.70
516;DHT22;244;48.508;9.052;2023-08-06T10:07:09;16.50;27.00
516;DHT22;244;48.508;9.052;2023-08-06T10:09:36;16.40;27.00
516;DHT22;244;48.508;9.052;2023-08-06T10:12:04;16.30;27.20
516;DHT22;244;48.508;9.052;2023-08-06T10:14:34;16.10;27.60
516;DHT22;244;48.508;9.052;2023-08-06T10:17:03;16.00;27.60
516;DHT22;244;48.508;9.052;2023-08-06T10:19:31;16.00;27.60
516;DHT22;244;48.508;9.052;2023-08-06T10:22:11;16.10;27.90
516;DHT22;244;48.508;9.052;2023-08-06T10:24:49;16.20;28.10
516;DHT22;244;48.508;9.052;2023-08-06T10:27:30;16.30;28.20
516;DHT22;244;48.508;9.052;2023-08-06T10:30:23;16.40;28.20
516;DHT22;244;48.508;9.052;2023-08-06T10:32:51;16.40;28.40
516;DHT22;244;48.508;9.052;2023-08-06T10:35:29;16.40;28.30
516;DHT22;244;48.508;9.052;2023-08-06T10:37:58;16.50;28.50
516;DHT22;244;48.508;9.052;2023-08-06T10:40:26;16.60;28.60
516;DHT22;244;48.508;9.052;2023-08-06T10:42:59;16.60;28.50
516;DHT22;244;48.508;9.052;2023-08-06T10:45:27;16.60;28.60
516;DHT22;244;48.508;9.052;2023-08-06T10:47:56;16.50;28.70
516;DHT22;244;48.508;9.052;2023-08-06T10:50:24;16.50;28.80
516;DHT22;244;48.508;9.052;2023-08-06T10:52:51;16.60;29.00
516;DHT22;244;48.508;9.052;2023-08-06T10:55:26;16.70;29.20
516;DHT22;244;48.508;9.052;2023-08-06T10:57:54;16.80;29.10
516;DHT22;244;48.508;9.052;2023-08-06T11:00:22;16.80;29.00
516;DHT22;244;48.508;9.052;2023-08-06T11:02:51;16.70;28.90
516;DHT22;244;48.508;9.052;2023-08-06T11:05:18;16.60;29.30
516;DHT22;244;48.508;9.052;2023-08-06T11:07:44;16.40;29.40
516;DHT22;244;48.508;9.052;2023-08-06T11:10:13;16.30;28.90
516;DHT22;244;48.508;9.052;2023-08-06T11:12:41;16.30;29.10
516;DHT22;244;48.508;9.052;2023-08-06T11:15:08;16.20;29.50
516;DHT22;244;48.508;9.052;2023-08-06T11:17:40;16.10;29.40
516;DHT22;244;48.508;9.052;2023-08-06T11:20:09;16.10;29.60
516;DHT22;244;48.508;9.052;2023-08-06T11:22:36;16.10;29.80
516;DHT22;244;48.508;9.052;2023-08-06T11:25:05;16.10;29.70
516;DHT22;244;48.508;9.052;2023-08-06T11:27:32;16.00;29.90
516;DHT22;244;48.508;9.052;2023-08-06T11:29:59;15.90;30.70
516;DHT22;244;48.508;9.052;2023-08-06T11:32:26;15.90;30.10
516;DHT22;244;48.508;9.052;2023-08-06T11:34:55;15.80;30.20
516;DHT22;244;48.508;9.052;2023-08-06T11:37:22;15.70;30.10
516;DHT22;244;48.508;9.052;2023-08-06T11:39:51;15.70;31.20
516;DHT22;244;48.508;9.052;2023-08-06T11:42:18;15.80;30.90
516;DHT22;244;48.508;9.052;2023-08-06T11:44:45;16.00;31.10
516;DHT22;244;48.508;9.052;2023-08-06T11:47:15;16.10;31.20
516;DHT22;244;48.508;9.052;2023-08-06T11:49:43;16.30;31.20
516;DHT22;244;48.508;9.052;2023-08-06T11:52:16;16.50;31.10
516;DHT22;244;48.508;9.052;2023-08-06T11:54:45;16.60;31.00
516;DHT22;244;48.508;9.052;2023-08-06T11:57:12;16.70;30.70
516;DHT22;244;48.508;9.052;2023-08-06T11:59:39;16.80;31.50
516;DHT22;244;48.508;9.052;2023-08-06T12:02:08;16.80;30.30
516;DHT22;244;48.508;9.052;2023-08-06T12:05:00;16.80;30.10
516;DHT22;244;48.508;9.052;2023-08-06T12:07:30;16.80;30.20
516;DHT22;244;48.508;9.052;2023-08-06T12:09:57;16.90;30.00
516;DHT22;244;48.508;9.052;2023-08-06T12:12:24;16.80;30.40
516;DHT22;244;48.508;9.052;2023-08-06T12:14:51;16.70;29.80
516;DHT22;244;48.508;9.052;2023-08-06T12:17:18;16.70;29.80
516;DHT22;244;48.508;9.052;2023-08-06T12:19:45;16.60;29.90
516;DHT22;244;48.508;9.052;2023-08-06T12:22:13;16.70;29.80
516;DHT22;244;48.508;9.052;2023-08-06T12:24:42;16.80;29.50
516;DHT22;244;48.508;9.052;2023-08-06T12:27:10;16.90;28.90
516;DHT22;244;48.508;9.052;2023-08-06T12:29:39;16.90;28.60
516;DHT22;244;48.508;9.052;2023-08-06T12:32:07;17.10;28.30
516;DHT22;244;48.508;9.052;2023-08-06T12:34:34;17.10;28.30
516;DHT22;244;48.508;9.052;2023-08-06T12:37:02;17.20;28.40
516;DHT22;244;48.508;9.052;2023-08-06T12:39:29;17.30;28.10
516;DHT22;244;48.508;9.052;2023-08-06T12:41:58;17.30;28.10
516;DHT22;244;48.508;9.052;2023-08-06T12:44:25;17.30;27.70
516;DHT22;244;48.508;9.052;2023-08-06T12:46:52;17.30;28.10
516;DHT22;244;48.508;9.052;2023-08-06T12:49:19;17.20;28.10
516;DHT22;244;48.508;9.052;2023-08-06T12:51:47;17.20;27.60
516;DHT22;244;48.508;9.052;2023-08-06T12:54:14;17.20;28.40
516;DHT22;244;48.508;9.052;2023-08-06T12:56:41;17.10;27.90
516;DHT22;244;48.508;9.052;2023-08-06T12:59:09;17.10;28.40
516;DHT22;244;48.508;9.052;2023-08-06T13:01:37;17.00;27.90
516;DHT22;244;48.508;9.052;2023-08-06T13:04:04;16.90;27.90
516;DHT22;244;48.508;9.052;2023-08-06T13:06:31;16.90;28.20
516;DHT22;244;48.508;9.052;2023-08-06T13:09:01;17.00;28.80
516;DHT22;244;48.508;9.052;2023-08-06T13:11:29;17.30;28.10
516;DHT22;244;48.508;9.052;2023-08-06T13:13:59;17.50;28.00
516;DHT22;244;48.508;9.052;2023-08-06T13:16:27;17.60;26.90
516;DHT22;244;48.508;9.052;2023-08-06T13:18:54;17.90;27.00
516;DHT22;244;48.508;9.052;2023-08-06T13:21:21;18.30;26.40
516;DHT22;244;48.508;9.052;2023-08-06T13:23:48;18.60;26.10
516;DHT22;244;48.508;9.052;2023-08-06T13:26:15;18.80;24.30
516;DHT22;244;48.508;9.052;2023-08-06T13:28:42;18.90;24.40
516;DHT22;244;48.508;9.052;2023-08-06T13:31:10;19.00;24.30
516;DHT22;244;48.508;9.052;2023-08-06T13:33:38;19.10;23.60
516;DHT22;244;48.508;9.052;2023-08-06T13:36:05;19.00;23.90
516;DHT22;244;48.508;9.052;2023-08-06T13:38:31;19.00;23.50
516;DHT22;244;48.508;9.052;2023-08-06T13:40:58;18.90;24.00
516;DHT22;244;48.508;9.052;2023-08-06T13:43:25;18.80;23.10
516;DHT22;244;48.508;9.052;2023-08-06T13:45:53;18.70;23.00
516;DHT22;244;48.508;9.052;2023-08-06T13:48:20;18.70;23.00
516;DHT22;244;48.508;9.052;2023-08-06T13:50:48;18.50;23.80
516;DHT22;244;48.508;9.052;2023-08-06T13:53:15;18.40;23.40
516;DHT22;244;48.508;9.052;2023-08-06T13:55:41;18.50;23.40
516;DHT22;244;48.508;9.052;2023-08-06T13:58:08;18.60;23.90
516;DHT22;244;48.508;9.052;2023-08-06T14:00:36;18.90;23.10
516;DHT22;244;48.508;9.052;2023-08-06T14:03:03;19.20;23.20
516;DHT22;244;48.508;9.052;2023-08-06T14:05:30;19.50;22.20
516;DHT22;244;48.508;9.052;2023-08-06T14:07:58;19.70;21.90
516;DHT22;244;48.508;9.052;2023-08-06T14:10:25;20.00;21.70
516;DHT22;244;48.508;9.052;2023-08-06T14:12:52;20.30;22.00
516;DHT22;244;48.508;9.052;2023-08-06T14:15:18;20.50;22.00
516;DHT22;244;48.508;9.052;2023-08-06T14:17:45;20.60;21.90
516;DHT22;244;48.508;9.052;2023-08-06T14:20:12;20.60;21.20
516;DHT22;244;48.508;9.052;2023-08-06T14:22:39;20.40;20.80
516;DHT22;244;48.508;9.052;2023-08-06T14:25:08;20.20;21.80
516;DHT22;244;48.508;9.052;2023-08-06T14:27:35;19.80;21.50
516;DHT22;244;48.508;9.052;2023-08-06T14:30:05;19.10;21.00
516;DHT22;244;48.508;9.052;2023-08-06T14:32:32;18.40;21.60
516;DHT22;244;48.508;9.052;2023-08-06T14:34:59;17.90;22.60
516;DHT22;244;48.508;9.052;2023-08-06T14:37:25;17.60;23.70
516;DHT22;244;48.508;9.052;2023-08-06T14:39:52;17.30;25.10
516;DHT22;244;48.508;9.052;2023-08-06T14:42:21;17.10;25.20
516;DHT22;244;48.508;9.052;2023-08-06T14:44:48;16.90;25.60
516;DHT22;244;48.508;9.052;2023-08-06T14:47:15;16.90;25.60
516;DHT22;244;48.508;9.052;2023-08-06T14:49:42;17.00;26.00
516;DHT22;244;48.508;9.052;2023-08-06T14:52:10;17.20;25.30
516;DHT22;244;48.508;9.052;2023-08-06T14:54:37;17.40;25.30
516;DHT22;244;48.508;9.052;2023-08-06T14:57:04;17.60;24.60
516;DHT22;244;48.508;9.052;2023-08-06T14:59:35;17.80;24.50
516;DHT22;244;48.508;9.052;2023-08-06T15:02:02;18.10;24.50
516;DHT22;244;48.508;9.052;2023-08-06T15:04:29;18.20;24.40
516;DHT22;244;48.508;9.052;2023-08-06T15:06:56;18.10;24.40
516;DHT22;244;48.508;9.052;2023-08-06T15:09:23;18.00;24.60
516;DHT22;244;48.508;9.052;2023-08-06T15:11:50;17.90;25.20
516;DHT22;244;48.508;9.052;2023-08-06T15:14:17;18.00;25.00
516;DHT22;244;48.508;9.052;2023-08-06T15:16:46;18.20;24.70
516;DHT22;244;48.508;9.052;2023-08-06T15:19:14;18.20;24.00
516;DHT22;244;48.508;9.052;2023-08-06T15:21:40;18.30;23.90
516;DHT22;244;48.508;9.052;2023-08-06T15:24:09;18.30;23.70
516;DHT22;244;48.508;9.052;2023-08-06T15:26:35;18.30;23.90
516;DHT22;244;48.508;9.052;2023-08-06T15:29:02;18.30;22.40
516;DHT22;244;48.508;9.052;2023-08-06T15:31:36;18.30;22.10
516;DHT22;244;48.508;9.052;2023-08-06T15:34:05;18.50;21.80
516;DHT22;244;48.508;9.052;2023-08-06T15:36:32;18.70;21.40
516;DHT22;244;48.508;9.052;2023-08-06T15:38:59;19.00;20.20
516;DHT22;244;48.508;9.052;2023-08-06T15:41:26;19.50;19.00
516;DHT22;244;48.508;9.052;2023-08-06T15:43:53;20.10;20.10
516;DHT22;244;48.508;9.052;2023-08-06T15:46:20;20.40;21.50
516;DHT22;244;48.508;9.052;2023-08-06T15:48:47;20.70;21.50
516;DHT22;244;48.508;9.052;2023-08-06T15:51:15;21.10;21.30
516;DHT22;244;48.508;9.052;2023-08-06T15:53:42;21.40;21.80
516;DHT22;244;48.508;9.052;2023-08-06T15:56:09;21.30;21.20
516;DHT22;244;48.508;9.052;2023-08-06T15:58:36;21.50;21.00
516;DHT22;244;48.508;9.052;2023-08-06T16:01:03;21.60;19.70
516;DHT22;244;48.508;9.052;2023-08-06T16:03:30;21.40;19.20
516;DHT22;244;48.508;9.052;2023-08-06T16:05:57;21.10;18.30
516;DHT22;244;48.508;9.052;2023-08-06T16:08:25;20.60;17.60
516;DHT22;244;48.508;9.052;2023-08-06T16:10:52;20.20;17.90
516;DHT22;244;48.508;9.052;2023-08-06T16:13:19;19.80;18.30
516;DHT22;244;48.508;9.052;2023-08-06T16:15:46;19.60;18.70
516;DHT22;244;48.508;9.052;2023-08-06T16:18:13;19.30;19.10
516;DHT22;244;48.508;9.052;2023-08-06T16:20:41;19.20;18.40
516;DHT22;244;48.508;9.052;2023-08-06T16:23:09;19.20;18.50
516;DHT22;244;48.508;9.052;2023-08-06T16:25:38;19.30;18.20
516;DHT22;244;48.508;9.052;2023-08-06T16:28:11;19.50;18.50
516;DHT22;244;48.508;9.052;2023-08-06T16:30:43;19.60;18.00
516;DHT22;244;48.508;9.052;2023-08-06T16:33:10;19.60;18.10
516;DHT22;244;48.508;9.052;2023-08-06T16:35:37;19.70;18.30
516;DHT22;244;48.508;9.052;2023-08-06T16:38:04;19.60;18.30